createdAt,value
2018-06-25T00:01:55.068Z,101133.46
2018-06-25T00:04:23.700Z,101134.46
2018-06-25T00:06:52.376Z,101133.75
2018-06-25T00:09:21.038Z,101132.37
2018-06-25T00:11:49.619Z,101128.92
2018-06-25T00:14:18.365Z,101131.06
2018-06-25T00:16:46.963Z,101127.32
2018-06-25T00:19:15.550Z,101127.42
2018-06-25T00:21:44.195Z,101125.09
2018-06-25T00:24:12.732Z,101119.05
2018-06-25T00:26:41.321Z,101125.98
2018-06-25T00:29:10.049Z,101126.19
2018-06-25T00:31:38.633Z,101121.46
2018-06-25T00:34:07.312Z,101128.26
2018-06-25T00:36:35.933Z,101127.98
2018-06-25T00:39:06.471Z,101123.44
2018-06-25T00:41:35.053Z,101126.84
2018-06-25T00:44:03.705Z,101130.11
2018-06-25T00:46:32.258Z,101136.62
2018-06-25T00:49:00.993Z,101129.69
2018-06-25T00:51:29.545Z,101130.06
2018-06-25T00:53:58.268Z,101133.56
2018-06-25T00:56:26.886Z,101136.02
2018-06-25T00:59:06.607Z,101135.64
2018-06-25T01:01:35.266Z,101128.69
2018-06-25T01:04:03.991Z,101129.17
2018-06-25T01:06:32.609Z,101133.31
2018-06-25T01:09:01.310Z,101134.52
2018-06-25T01:11:29.958Z,101129.73
2018-06-25T01:13:58.572Z,101132.72
2018-06-25T01:16:27.427Z,101134.89
2018-06-25T01:18:56.314Z,101133.31
2018-06-25T01:21:24.903Z,101133.19
2018-06-25T01:23:53.574Z,101128.87
2018-06-25T01:26:22.279Z,101130.12
2018-06-25T01:28:50.901Z,101126.00
2018-06-25T01:31:19.612Z,101124.77
2018-06-25T01:33:48.222Z,101127.74
2018-06-25T01:36:16.851Z,101129.91
2018-06-25T01:38:45.549Z,101125.57
2018-06-25T01:41:14.264Z,101126.80
2018-06-25T01:43:42.900Z,101130.77
2018-06-25T01:46:11.506Z,101123.30
2018-06-25T01:48:40.136Z,101126.33
2018-06-25T01:51:08.889Z,101120.91
2018-06-25T01:53:37.553Z,101124.87
2018-06-25T01:56:06.317Z,101124.30
2018-06-25T01:58:35.108Z,101118.53
2018-06-25T02:01:04.003Z,101118.53
2018-06-25T02:03:32.813Z,101122.41
2018-06-25T02:06:01.516Z,101115.89
2018-06-25T02:08:30.167Z,101110.50
2018-06-25T02:10:58.814Z,101116.41
2018-06-25T02:13:27.404Z,101115.09
2018-06-25T02:15:56.092Z,101117.36
2018-06-25T02:18:24.760Z,101118.81
2018-06-25T02:20:53.722Z,101120.70
2018-06-25T02:23:22.400Z,101120.00
2018-06-25T02:25:51.041Z,101117.96
2018-06-25T02:28:19.649Z,101120.75
2018-06-25T02:30:48.290Z,101122.93
2018-06-25T02:33:16.976Z,101117.81
2018-06-25T02:35:45.566Z,101118.71
2018-06-25T02:38:14.287Z,101113.56
2018-06-25T02:40:42.943Z,101118.43
2018-06-25T02:43:11.603Z,100963.19
2018-06-25T02:45:40.416Z,101118.75
2018-06-25T02:48:09.011Z,101121.47
2018-06-25T02:50:37.695Z,101119.61
2018-06-25T02:53:06.470Z,101119.78
2018-06-25T02:55:35.231Z,101124.61
2018-06-25T02:58:03.843Z,101123.05
2018-06-25T03:00:32.485Z,101124.64
2018-06-25T03:03:01.101Z,101124.27
2018-06-25T03:05:29.752Z,101122.33
2018-06-25T03:07:58.322Z,101129.09
2018-06-25T03:10:27.036Z,101125.63
2018-06-25T03:12:55.646Z,101133.86
2018-06-25T03:15:24.311Z,101134.60
2018-06-25T03:17:52.935Z,101127.64
2018-06-25T03:20:21.551Z,101132.02
2018-06-25T03:22:50.226Z,101127.38
2018-06-25T03:25:18.887Z,101130.53
2018-06-25T03:27:47.530Z,101130.19
2018-06-25T03:30:16.202Z,101131.68
2018-06-25T03:32:44.934Z,101129.16
2018-06-25T03:35:13.504Z,101129.94
2018-06-25T03:37:42.180Z,101128.50
2018-06-25T03:40:10.876Z,101131.19
2018-06-25T03:42:39.504Z,101135.42
2018-06-25T03:45:08.144Z,101132.91
2018-06-25T03:47:36.880Z,101132.34
2018-06-25T03:50:05.516Z,101137.34
2018-06-25T03:52:34.121Z,101134.12
2018-06-25T03:55:02.800Z,101135.25
2018-06-25T03:57:31.403Z,101143.36
2018-06-25T04:00:00.101Z,101144.85
2018-06-25T04:02:28.737Z,101144.28
2018-06-25T04:04:57.385Z,101139.98
2018-06-25T04:07:26.023Z,101140.15
2018-06-25T04:09:54.644Z,101149.12
2018-06-25T04:12:23.337Z,101147.09
2018-06-25T04:14:51.975Z,101147.22
2018-06-25T04:17:20.596Z,101151.09
2018-06-25T04:19:49.204Z,101152.44
2018-06-25T04:22:17.838Z,101151.48
2018-06-25T04:24:46.518Z,101145.79
2018-06-25T04:27:15.183Z,101143.52
2018-06-25T04:29:43.813Z,101144.95
2018-06-25T04:32:12.408Z,101141.67
2018-06-25T04:34:41.037Z,101140.83
2018-06-25T04:37:09.698Z,101140.50
2018-06-25T04:39:38.436Z,101138.89
2018-06-25T04:42:07.089Z,101137.16
2018-06-25T04:44:35.724Z,101145.23
2018-06-25T04:47:04.489Z,101137.20
2018-06-25T04:49:33.195Z,101139.72
2018-06-25T04:52:01.936Z,101141.62
2018-06-25T04:54:30.693Z,101139.61
2018-06-25T04:56:59.276Z,101135.26
2018-06-25T04:59:28.004Z,101139.94
2018-06-25T05:01:56.798Z,101146.64
2018-06-25T05:04:26.121Z,101144.64
2018-06-25T05:06:54.850Z,101138.92
2018-06-25T05:09:23.495Z,101146.08
2018-06-25T05:11:52.240Z,101144.26
2018-06-25T05:14:20.889Z,101148.62
2018-06-25T05:16:49.546Z,101145.00
2018-06-25T05:19:18.219Z,101144.86
2018-06-25T05:21:46.846Z,101142.30
2018-06-25T05:24:15.548Z,101144.81
2018-06-25T05:26:44.209Z,101141.98
2018-06-25T05:29:12.903Z,101139.91
2018-06-25T05:31:41.672Z,101133.08
2018-06-25T05:34:10.285Z,101135.35
2018-06-25T05:36:38.943Z,101133.09
2018-06-25T05:39:09.350Z,101126.91
2018-06-25T05:41:38.231Z,101120.29
2018-06-25T05:44:06.799Z,101116.06
2018-06-25T05:46:35.450Z,101115.03
2018-06-25T05:49:04.080Z,101121.34
2018-06-25T05:51:32.685Z,101110.53
2018-06-25T05:54:01.335Z,101106.00
2018-06-25T05:56:29.940Z,101109.68
2018-06-25T05:58:58.914Z,101111.37
2018-06-25T06:01:28.090Z,101106.08
2018-06-25T06:03:56.766Z,101110.47
2018-06-25T06:06:25.585Z,101106.36
2018-06-25T06:08:54.220Z,101113.65
2018-06-25T06:11:22.898Z,101114.20
2018-06-25T06:13:51.670Z,101109.21
2018-06-25T06:16:20.280Z,101112.02
2018-06-25T06:18:48.921Z,101108.41
2018-06-25T06:21:17.552Z,101106.92
2018-06-25T06:23:46.242Z,101111.24
2018-06-25T06:26:14.871Z,101110.78
2018-06-25T06:28:43.694Z,101108.55
2018-06-25T06:31:12.634Z,101111.62
2018-06-25T06:33:41.361Z,101113.62
2018-06-25T06:36:10.115Z,101109.66
2018-06-25T06:38:38.718Z,101110.63
2018-06-25T06:41:07.738Z,101108.27
2018-06-25T06:43:36.459Z,101106.55
2018-06-25T06:46:05.077Z,101112.78
2018-06-25T06:48:33.787Z,101108.44
2018-06-25T06:51:02.461Z,101104.70
2018-06-25T06:53:31.440Z,101103.86
2018-06-25T06:56:00.103Z,101103.78
2018-06-25T06:58:28.731Z,101105.35
2018-06-25T07:00:57.340Z,101103.59
2018-06-25T07:03:25.966Z,101105.35
2018-06-25T07:05:54.927Z,101103.58
2018-06-25T07:08:23.621Z,101101.16
2018-06-25T07:10:52.224Z,101098.42
2018-06-25T07:13:20.886Z,101103.17
2018-06-25T07:15:49.723Z,101102.79
2018-06-25T07:18:18.491Z,101107.80
2018-06-25T07:20:47.157Z,101111.18
2018-06-25T07:23:15.726Z,101118.31
2018-06-25T07:25:44.348Z,101110.67
2018-06-25T07:28:12.941Z,101110.38
2018-06-25T07:30:41.646Z,101109.73
2018-06-25T07:33:10.288Z,101114.48
2018-06-25T07:35:38.975Z,101118.31
2018-06-25T07:38:07.749Z,101116.17
2018-06-25T07:40:36.578Z,101120.05
2018-06-25T07:43:05.494Z,101126.11
2018-06-25T07:45:34.169Z,101114.85
2018-06-25T07:48:02.968Z,101113.83
2018-06-25T07:50:31.642Z,101114.53
2018-06-25T07:53:00.337Z,101117.05
2018-06-25T07:55:28.989Z,101116.53
2018-06-25T07:57:57.740Z,101124.23
2018-06-25T08:00:26.439Z,101115.12
2018-06-25T08:02:55.155Z,101121.41
2018-06-25T08:05:23.832Z,101123.05
2018-06-25T08:07:52.471Z,101122.52
2018-06-25T08:10:21.169Z,101130.56
2018-06-25T08:12:49.853Z,101117.70
2018-06-25T08:15:18.475Z,101130.75
2018-06-25T08:17:47.110Z,101137.45
2018-06-25T08:20:15.726Z,101132.92
2018-06-25T08:22:44.348Z,101137.68
2018-06-25T08:25:13.156Z,101133.28
2018-06-25T08:27:41.782Z,101131.39
2018-06-25T08:30:10.395Z,101135.58
2018-06-25T08:32:39.225Z,101133.17
2018-06-25T08:35:07.984Z,101134.28
2018-06-25T08:37:36.606Z,101130.46
2018-06-25T08:40:05.570Z,101134.69
2018-06-25T08:42:34.251Z,101135.16
2018-06-25T08:45:03.038Z,101137.46
2018-06-25T08:47:31.699Z,101142.81
2018-06-25T08:50:00.426Z,101143.20
2018-06-25T08:52:29.083Z,101139.42
2018-06-25T08:54:57.734Z,101145.14
2018-06-25T08:57:26.373Z,101148.03
2018-06-25T08:59:55.040Z,101147.53
2018-06-25T09:02:23.677Z,101145.65
2018-06-25T09:04:52.324Z,101144.85
2018-06-25T09:07:20.995Z,101146.57
2018-06-25T09:09:49.668Z,101140.30
2018-06-25T09:12:18.279Z,101139.97
2018-06-25T09:14:47.058Z,101140.70
2018-06-25T09:17:15.844Z,101135.38
2018-06-25T09:19:44.492Z,101136.46
2018-06-25T09:22:13.164Z,101124.57
2018-06-25T09:24:41.884Z,101129.48
2018-06-25T09:27:10.565Z,101125.16
2018-06-25T09:29:39.203Z,101122.27
2018-06-25T09:32:07.922Z,101122.53
2018-06-25T09:34:41.750Z,101123.33
2018-06-25T09:37:10.439Z,101124.45
2018-06-25T09:39:39.020Z,101118.98
2018-06-25T09:42:07.685Z,101126.92
2018-06-25T09:44:36.243Z,101124.13
2018-06-25T09:47:04.959Z,101134.52
2018-06-25T09:49:33.492Z,101129.16
2018-06-25T09:52:02.062Z,101129.14
2018-06-25T09:54:30.786Z,101125.84
2018-06-25T09:56:59.400Z,101129.55
2018-06-25T09:59:28.133Z,101131.91
2018-06-25T10:01:56.974Z,101129.14
2018-06-25T10:04:25.629Z,101130.50
2018-06-25T10:06:54.315Z,101124.67
2018-06-25T10:09:23.014Z,101124.34
2018-06-25T10:11:51.627Z,101129.33
2018-06-25T10:14:20.455Z,101121.89
2018-06-25T10:16:49.056Z,101125.66
2018-06-25T10:19:17.667Z,101127.09
2018-06-25T10:21:46.296Z,101116.94
2018-06-25T10:24:15.397Z,101121.36
2018-06-25T10:26:44.122Z,101120.58
2018-06-25T10:29:12.707Z,101116.69
2018-06-25T10:31:41.460Z,101115.85
2018-06-25T10:34:10.200Z,101113.44
2018-06-25T10:36:38.805Z,100991.91
2018-06-25T10:39:09.518Z,101123.09
2018-06-25T10:41:38.245Z,101121.56
2018-06-25T10:44:08.244Z,101121.52
2018-06-25T10:46:36.859Z,101122.26
2018-06-25T10:49:05.476Z,101126.42
2018-06-25T10:51:34.113Z,101125.34
2018-06-25T10:54:02.754Z,101130.77
2018-06-25T10:56:31.420Z,101127.28
2018-06-25T10:59:00.078Z,101129.66
2018-06-25T11:01:28.654Z,101122.04
2018-06-25T11:03:57.361Z,101120.66
2018-06-25T11:06:26.033Z,101128.61
2018-06-25T11:08:54.611Z,101123.14
2018-06-25T11:11:23.247Z,101135.94
2018-06-25T11:13:51.888Z,101130.03
2018-06-25T11:16:20.666Z,101129.39
2018-06-25T11:18:49.366Z,101132.75
2018-06-25T11:21:18.027Z,101128.63
2018-06-25T11:23:46.787Z,101129.78
2018-06-25T11:26:15.529Z,101132.20
2018-06-25T11:28:44.100Z,101137.68
2018-06-25T11:31:12.845Z,101133.87
2018-06-25T11:33:41.522Z,101138.02
2018-06-25T11:36:10.174Z,101138.65
2018-06-25T11:38:38.871Z,101139.28
2018-06-25T11:41:07.502Z,101146.20
2018-06-25T11:43:36.182Z,101141.90
2018-06-25T11:47:06.982Z,101017.06
2018-06-25T11:49:35.707Z,101143.76
2018-06-25T11:52:04.291Z,101145.60
2018-06-25T11:54:33.029Z,101142.34
2018-06-25T11:57:01.694Z,101144.19
2018-06-25T11:59:30.301Z,101150.08
2018-06-25T12:01:59.116Z,101141.81
2018-06-25T12:04:27.691Z,101151.79
2018-06-25T12:06:56.376Z,101152.54
2018-06-25T12:09:25.076Z,101148.72
2018-06-25T12:11:53.701Z,101159.80
2018-06-25T12:14:22.292Z,101157.68
2018-06-25T12:16:50.903Z,101158.05
2018-06-25T12:19:19.607Z,101163.06
2018-06-25T12:21:48.280Z,101164.19
2018-06-25T12:24:16.878Z,101167.05
2018-06-25T12:26:46.194Z,101170.91
2018-06-25T12:29:14.844Z,101181.53
2018-06-25T12:31:43.396Z,101174.32
2018-06-25T12:34:12.014Z,101179.92
2018-06-25T12:36:40.635Z,101180.94
2018-06-25T12:39:10.204Z,101181.78
2018-06-25T12:41:38.974Z,101182.97
2018-06-25T12:44:08.454Z,101182.28
2018-06-25T12:46:37.753Z,101178.70
2018-06-25T12:49:06.416Z,101179.88
2018-06-25T12:51:35.116Z,101182.19
2018-06-25T12:54:03.758Z,101183.22
2018-06-25T12:56:32.425Z,101188.96
2018-06-25T12:59:01.121Z,101183.30
2018-06-25T13:01:29.839Z,101173.83
2018-06-25T13:03:58.651Z,101175.34
2018-06-25T13:06:27.327Z,101169.41
2018-06-25T13:08:55.925Z,101175.47
2018-06-25T13:11:24.541Z,101173.03
2018-06-25T13:13:53.218Z,101167.23
2018-06-25T13:16:21.849Z,101172.73
2018-06-25T13:18:50.611Z,101172.16
2018-06-25T13:21:19.434Z,101173.42
2018-06-25T13:23:48.058Z,101178.78
2018-06-25T13:26:16.690Z,101180.52
2018-06-25T13:28:45.658Z,101173.47
2018-06-25T13:31:14.626Z,101179.44
2018-06-25T13:33:43.268Z,101173.91
2018-06-25T13:36:11.876Z,101177.34
2018-06-25T13:38:40.581Z,101178.64
2018-06-25T13:41:09.165Z,101170.77
2018-06-25T13:43:37.922Z,101169.42
2018-06-25T13:46:06.951Z,101173.63
2018-06-25T13:48:35.677Z,101172.78
2018-06-25T13:51:04.340Z,101172.22
2018-06-25T13:53:33.049Z,101169.63
2018-06-25T13:56:01.773Z,101170.33
2018-06-25T13:58:30.380Z,101172.39
2018-06-25T14:00:59.199Z,101172.80
2018-06-25T14:03:27.808Z,101166.53
2018-06-25T14:05:56.502Z,101161.02
2018-06-25T14:08:25.095Z,101168.84
2018-06-25T14:10:53.668Z,101167.55
2018-06-25T14:13:22.435Z,101168.61
2018-06-25T14:15:51.036Z,101177.02
2018-06-25T14:18:19.683Z,101170.17
2018-06-25T14:20:48.433Z,101165.94
2018-06-25T14:23:17.100Z,101172.91
2018-06-25T14:25:50.834Z,101173.66
2018-06-25T14:28:24.688Z,101175.87
2018-06-25T14:30:58.334Z,101178.79
2018-06-25T14:33:32.167Z,101177.84
2018-06-25T14:36:00.813Z,101182.59
2018-06-25T14:38:29.491Z,101180.03
2018-06-25T14:40:58.154Z,101183.26
2018-06-25T14:43:26.776Z,101181.27
2018-06-25T14:45:55.372Z,101186.86
2018-06-25T14:48:24.250Z,101184.72
2018-06-25T14:50:52.827Z,101185.52
2018-06-25T14:53:21.557Z,101186.27
2018-06-25T14:55:50.313Z,101184.52
2018-06-25T14:58:18.996Z,101192.70
2018-06-25T15:00:47.615Z,101200.69
2018-06-25T15:03:16.243Z,101200.78
2018-06-25T15:05:44.970Z,101197.00
2018-06-25T15:08:13.608Z,101204.95
2018-06-25T15:10:42.450Z,101204.34
2018-06-25T15:13:11.249Z,101198.08
2018-06-25T15:15:40.004Z,101190.56
2018-06-25T15:18:08.945Z,101189.20
2018-06-25T15:20:37.586Z,101196.72
2018-06-25T15:23:06.202Z,101186.77
2018-06-25T15:25:34.854Z,101184.82
2018-06-25T15:28:03.432Z,101185.36
2018-06-25T15:30:32.053Z,101186.23
2018-06-25T15:33:00.743Z,101186.31
2018-06-25T15:35:29.310Z,101184.78
2018-06-25T15:37:59.202Z,101188.57
2018-06-25T15:40:27.883Z,101190.52
2018-06-25T15:42:56.660Z,101190.86
2018-06-25T15:45:25.372Z,101187.83
2018-06-25T15:47:54.060Z,101184.30
2018-06-25T15:50:22.639Z,101177.11
2018-06-25T15:52:51.344Z,101172.97
2018-06-25T15:55:20.155Z,101178.19
2018-06-25T15:57:48.735Z,101173.89
2018-06-25T16:00:17.469Z,101171.44
2018-06-25T16:02:46.158Z,101180.38
2018-06-25T16:05:15.015Z,101180.20
2018-06-25T16:07:43.669Z,101194.91
2018-06-25T16:10:12.297Z,101184.40
2018-06-25T16:12:40.870Z,101182.30
2018-06-25T16:15:09.496Z,101186.48
2018-06-25T16:17:38.140Z,101188.27
2018-06-25T16:20:06.804Z,101194.41
2018-06-25T16:22:35.407Z,101193.14
2018-06-25T16:25:04.117Z,101189.23
2018-06-25T16:27:32.777Z,101200.36
2018-06-25T16:30:01.445Z,101201.00
2018-06-25T16:32:30.199Z,101208.01
2018-06-25T16:34:58.843Z,101207.22
2018-06-25T16:37:27.451Z,101205.88
2018-06-25T16:39:56.032Z,101221.17
2018-06-25T16:42:30.996Z,101218.42
2018-06-25T16:44:59.678Z,101230.40
2018-06-25T16:47:28.306Z,101233.77
2018-06-25T16:49:56.962Z,101231.72
2018-06-25T16:52:25.613Z,101234.11
2018-06-25T16:54:54.334Z,101231.52
2018-06-25T16:57:23.052Z,101110.92
2018-06-25T16:59:51.660Z,101237.54
2018-06-25T17:02:20.244Z,101250.17
2018-06-25T17:04:49.022Z,101256.17
2018-06-25T17:07:17.846Z,101254.98
2018-06-25T17:09:46.525Z,101251.16
2018-06-25T17:12:15.197Z,101253.22
2018-06-25T17:14:44.163Z,101255.08
2018-06-25T17:17:12.761Z,101261.73
2018-06-25T17:19:41.575Z,101253.84
2018-06-25T17:22:10.280Z,101262.33
2018-06-25T17:24:38.901Z,101268.72
2018-06-25T17:27:07.462Z,101269.42
2018-06-25T17:29:36.160Z,101271.30
2018-06-25T17:32:04.996Z,101278.38
2018-06-25T17:34:33.652Z,101278.71
2018-06-25T17:37:02.231Z,101278.03
2018-06-25T17:39:30.825Z,101279.22
2018-06-25T17:41:59.580Z,101276.98
2018-06-25T17:44:28.338Z,101281.50
2018-06-25T17:46:56.938Z,101272.58
2018-06-25T17:49:25.670Z,101271.03
2018-06-25T17:51:54.332Z,101273.89
2018-06-25T17:54:22.963Z,101276.22
2018-06-25T17:56:51.585Z,101270.32
2018-06-25T17:59:20.329Z,101263.41
2018-06-25T18:01:48.945Z,101268.84
2018-06-25T18:04:17.537Z,101268.67
2018-06-25T18:06:46.171Z,101269.84
2018-06-25T18:09:14.876Z,101264.83
2018-06-25T18:11:43.567Z,101271.56
2018-06-25T18:14:12.188Z,101270.89
2018-06-25T18:16:40.786Z,101272.41
2018-06-25T18:19:09.396Z,101271.42
2018-06-25T18:21:37.942Z,101273.27
2018-06-25T18:24:06.575Z,101269.42
2018-06-25T18:26:35.177Z,101275.32
2018-06-25T18:29:03.754Z,101267.91
2018-06-25T18:31:32.453Z,101265.08
2018-06-25T18:34:01.193Z,101267.27
2018-06-25T18:36:29.777Z,101262.88
2018-06-25T18:38:58.386Z,101266.44
2018-06-25T18:41:27.080Z,101266.12
2018-06-25T18:43:55.631Z,101268.14
2018-06-25T18:46:24.265Z,101272.88
2018-06-25T18:48:52.901Z,101271.70
2018-06-25T18:51:21.777Z,101274.37
2018-06-25T18:53:50.563Z,101281.47
2018-06-25T18:56:19.300Z,101284.52
2018-06-25T18:58:48.020Z,101278.63
2018-06-25T19:01:16.679Z,101285.04
2018-06-25T19:03:45.315Z,101282.13
2018-06-25T19:06:13.881Z,101279.95
2018-06-25T19:08:42.442Z,101289.20
2018-06-25T19:11:11.123Z,101282.97
2018-06-25T19:13:39.711Z,101284.49
2018-06-25T19:16:08.491Z,101283.65
2018-06-25T19:18:37.128Z,101281.28
2018-06-25T19:21:05.702Z,101290.55
2018-06-25T19:23:34.328Z,101296.09
2018-06-25T19:26:02.918Z,101296.41
2018-06-25T19:28:31.673Z,101292.72
2018-06-25T19:31:00.294Z,101285.66
2018-06-25T19:33:28.938Z,101291.55
2018-06-25T19:35:57.712Z,101300.25
2018-06-25T19:38:26.273Z,101295.22
2018-06-25T19:40:54.887Z,101298.08
2018-06-25T19:43:23.623Z,101303.27
2018-06-25T19:45:52.170Z,101301.90
2018-06-25T19:48:20.967Z,101314.78
2018-06-25T19:50:49.794Z,101315.59
2018-06-25T19:53:18.471Z,101322.47
2018-06-25T19:55:47.058Z,101313.52
2018-06-25T19:58:15.631Z,101319.02
2018-06-25T20:00:44.226Z,101323.03
2018-06-25T20:03:12.831Z,101327.83
2018-06-25T20:05:41.436Z,101326.97
2018-06-25T20:08:10.221Z,101324.92
2018-06-25T20:10:38.835Z,101331.09
2018-06-25T20:13:07.527Z,101333.29
2018-06-25T20:15:36.295Z,101340.30
2018-06-25T20:18:04.944Z,101342.83
2018-06-25T20:20:33.666Z,101345.45
2018-06-25T20:23:02.293Z,101348.91
2018-06-25T20:25:30.960Z,101354.89
2018-06-25T20:27:59.745Z,101349.30
2018-06-25T20:30:29.499Z,101351.44
2018-06-25T20:32:58.236Z,101371.70
2018-06-25T20:35:27.408Z,101359.40
2018-06-25T20:37:56.166Z,101355.80
2018-06-25T20:40:24.823Z,101370.83
2018-06-25T20:42:53.489Z,101364.33
2018-06-25T20:45:22.295Z,101376.48
2018-06-25T20:47:50.954Z,101376.05
2018-06-25T20:50:19.556Z,101384.45
2018-06-25T20:52:48.150Z,101381.33
2018-06-25T20:55:16.996Z,101381.44
2018-06-25T20:57:45.712Z,101381.34
2018-06-25T21:00:14.477Z,101390.12
2018-06-25T21:02:43.188Z,101411.45
2018-06-25T21:05:11.790Z,101391.27
2018-06-25T21:07:40.376Z,101391.44
2018-06-25T21:10:09.068Z,101400.55
2018-06-25T21:12:37.840Z,101397.72
2018-06-25T21:15:06.617Z,101408.66
2018-06-25T21:17:35.430Z,101407.16
2018-06-25T21:20:04.392Z,101416.75
2018-06-25T21:22:32.975Z,101415.98
2018-06-25T21:25:01.634Z,101418.71
2018-06-25T21:27:30.260Z,101427.31
2018-06-25T21:29:58.951Z,101431.19
2018-06-25T21:32:27.592Z,101436.84
2018-06-25T21:34:56.272Z,101440.13
2018-06-25T21:37:25.005Z,101441.73
2018-06-25T21:39:53.644Z,101451.17
2018-06-25T21:42:22.234Z,101451.92
2018-06-25T21:44:51.076Z,101462.43
2018-06-25T21:47:19.665Z,101456.36
2018-06-25T21:49:48.369Z,101460.73
2018-06-25T21:52:16.975Z,101462.43
2018-06-25T21:54:45.563Z,101468.03
2018-06-25T21:57:14.214Z,101470.22
2018-06-25T21:59:42.917Z,101482.52
2018-06-25T22:02:11.521Z,101483.85
2018-06-25T22:04:40.213Z,101486.10
2018-06-25T22:07:08.815Z,101488.55
2018-06-25T22:09:37.417Z,101491.09
2018-06-25T22:12:06.310Z,101497.41
2018-06-25T22:14:34.934Z,101499.66
2018-06-25T22:17:03.561Z,101501.87
2018-06-25T22:19:32.203Z,101511.48
2018-06-25T22:22:00.831Z,101512.75
2018-06-25T22:24:29.457Z,101508.51
2018-06-25T22:26:58.084Z,101521.87
2018-06-25T22:29:26.739Z,101521.87
2018-06-25T22:31:55.416Z,101518.34
2018-06-25T22:34:24.084Z,101528.42
2018-06-25T22:36:52.668Z,101524.67
2018-06-25T22:39:21.277Z,101536.98
2018-06-25T22:41:50.234Z,101531.16
2018-06-25T22:44:18.854Z,101539.84
2018-06-25T22:46:47.471Z,101542.76
2018-06-25T22:49:16.245Z,101543.01
2018-06-25T22:51:44.862Z,101547.19
2018-06-25T22:54:13.452Z,101551.36
2018-06-25T22:56:42.063Z,101564.72
2018-06-25T22:59:10.714Z,101568.13
2018-06-25T23:01:45.894Z,101572.66
2018-06-25T23:04:14.474Z,101574.97
2018-06-25T23:06:43.060Z,101567.00
2018-06-25T23:09:12.301Z,101577.44
2018-06-25T23:11:40.972Z,101570.80
2018-06-25T23:14:09.565Z,101574.56
2018-06-25T23:16:38.159Z,101566.34
2018-06-25T23:19:06.782Z,101569.05
2018-06-25T23:21:35.368Z,101574.19
2018-06-25T23:24:04.188Z,101590.56
2018-06-25T23:26:32.819Z,101587.92
2018-06-25T23:29:01.425Z,101593.30
2018-06-25T23:31:30.017Z,101583.22
2018-06-25T23:33:58.706Z,101594.50
2018-06-25T23:36:27.349Z,101605.89
2018-06-25T23:38:55.939Z,101613.56
2018-06-25T23:41:24.863Z,101614.91
2018-06-25T23:43:53.505Z,101610.08
2018-06-25T23:46:22.059Z,101614.20
2018-06-25T23:48:50.739Z,101622.47
2018-06-25T23:51:19.385Z,101630.09
2018-06-25T23:53:48.151Z,101630.95
2018-06-25T23:56:16.757Z,101630.98
2018-06-25T23:58:45.398Z,101642.24
